Time;durP1;ratioP1;P1;durP2;ratioP2;P2;SDS_P1;SDS_P2;PMS_P1;PMS_P2;Temp;Humidity;BMP_temperature;BMP_pressure;BME280_temperature;BME280_humidity;BME280_pressure;Samples;Min_cycle;Max_cycle;Signal;HPM_P1;HPM_P2
2022/10/05 00:01:45;;;;;;;3.65;2.55;;;;;;;16.11;44.69;102326.13;1782900;79;21012;-51
2022/10/05 00:04:22;;;;;;;2.75;2.12;;;;;;;16.10;44.62;102326.13;1800193;77;22054;-51
2022/10/05 00:07:03;;;;;;;5.03;1.95;;;;;;;16.10;44.73;102330.94;1783293;79;20980;-50
2022/10/05 00:09:31;;;;;;;2.65;2.12;;;;;;;16.07;44.86;102328.35;1656131;86;21127;-51
2022/10/05 00:11:58;;;;;;;2.47;2.10;;;;;;;16.07;44.84;102329.67;1656614;86;21032;-51
2022/10/05 00:14:30;;;;;;;4.25;2.05;;;;;;;16.07;44.88;102333.61;1654404;86;21119;-51
2022/10/05 00:16:57;;;;;;;4.12;2.00;;;;;;;16.07;44.76;102338.86;1645885;86;21019;-51
2022/10/05 00:19:36;;;;;;;2.75;2.33;;;;;;;16.08;44.83;102332.73;1655184;86;21124;-52
2022/10/05 00:22:16;;;;;;;3.67;2.15;;;;;;;16.09;44.93;102331.81;1642630;87;21068;-50
2022/10/05 00:24:49;;;;;;;3.00;2.12;;;;;;;16.10;45.11;102325.69;1569320;91;21074;-50
2022/10/05 00:27:20;;;;;;;4.50;1.75;;;;;;;16.11;45.23;102332.69;1571037;91;21068;-51
2022/10/05 00:29:48;;;;;;;2.20;2.00;;;;;;;16.12;45.20;102337.02;1570923;91;21570;-51
2022/10/05 00:32:15;;;;;;;3.00;2.08;;;;;;;16.11;45.09;102341.87;1570911;91;21047;-51
2022/10/05 00:34:42;;;;;;;2.60;2.00;;;;;;;16.11;44.90;102337.94;1568521;91;21076;-51
2022/10/05 00:37:09;;;;;;;2.62;2.40;;;;;;;16.10;44.93;102346.69;1598043;89;21636;-51
2022/10/05 00:39:38;;;;;;;2.67;1.92;;;;;;;16.09;44.99;102347.57;1612220;88;21570;-51
2022/10/05 00:42:36;;;;;;;3.85;2.10;;;;;;;16.07;45.18;102348.05;1602390;89;21593;-51
2022/10/05 00:45:15;;;;;;;3.05;2.10;;;;;;;16.07;45.22;102349.36;1603899;88;21142;-51
2022/10/05 00:48:06;;;;;;;4.60;2.00;;;;;;;16.05;45.22;102351.16;1611295;89;21077;-52
2022/10/05 00:51:18;;;;;;;2.00;1.80;;;;;;;16.03;45.40;102350.31;1605863;88;21098;-52
2022/10/05 00:53:59;;;;;;;3.12;2.27;;;;;;;16.03;45.38;102349.00;1627648;88;21763;-52
2022/10/05 00:57:16;;;;;;;4.78;2.00;;;;;;;16.05;45.46;102351.16;1586409;90;21040;-53
2022/10/05 01:00:06;;;;;;;3.42;2.40;;;;;;;16.06;45.50;102350.27;1650760;85;21574;-51
2022/10/05 01:02:50;;;;;;;3.37;3.05;;;;;;;16.10;45.47;102350.62;1653663;86;21068;-52
2022/10/05 01:05:49;;;;;;;3.55;2.83;;;;;;;16.12;45.36;102355.41;1660739;83;21565;-51
2022/10/05 01:08:55;;;;;;;2.47;2.08;;;;;;;16.13;45.25;102358.47;1664912;85;21589;-51
2022/10/05 01:11:33;;;;;;;2.50;2.00;;;;;;;16.14;45.09;102363.25;1710226;83;21570;-50
2022/10/05 01:14:21;;;;;;;2.55;2.05;;;;;;;16.12;45.06;102356.72;1702295;82;21062;-50
2022/10/05 01:16:56;;;;;;;2.65;2.00;;;;;;;16.11;45.26;102360.26;1637953;87;21668;-51
2022/10/05 01:19:53;;;;;;;3.55;2.12;;;;;;;16.10;45.42;102361.58;1636219;87;21100;-51
2022/10/05 01:22:48;;;;;;;2.27;2.02;;;;;;;16.10;45.57;102366.39;1607087;88;21089;-51
2022/10/05 01:25:23;;;;;;;3.20;1.75;;;;;;;16.09;45.68;102365.95;1608697;88;21076;-52
2022/10/05 01:28:14;;;;;;;3.98;1.70;;;;;;;16.09;45.75;102368.58;1612210;88;21062;-53
2022/10/05 01:31:00;;;;;;;4.20;2.00;;;;;;;16.09;45.97;102373.83;1672534;83;21026;-51
2022/10/05 01:33:47;;;;;;;2.95;1.90;;;;;;;16.12;46.01;102370.29;1689371;84;21098;-51
2022/10/05 01:36:44;;;;;;;2.77;1.87;;;;;;;16.15;45.97;102380.75;1673729;84;21059;-51
2022/10/05 01:39:40;;;;;;;3.95;2.00;;;;;;;16.17;45.94;102385.09;1678247;85;21040;-51
2022/10/05 01:42:48;;;;;;;2.95;1.87;;;;;;;16.22;45.83;102384.53;1671484;85;21049;-51
2022/10/05 01:45:40;;;;;;;2.17;1.98;;;;;;;16.25;45.66;102387.12;1676709;85;21056;-51
2022/10/05 01:48:15;;;;;;;2.90;2.02;;;;;;;16.27;45.42;102385.33;1673208;85;21075;-51
2022/10/05 01:51:04;;;;;;;3.05;2.00;;;;;;;16.27;45.41;102390.58;1673821;85;21048;-52
2022/10/05 01:53:56;;;;;;;2.30;2.08;;;;;;;16.26;45.37;102390.14;1605916;89;21070;-51
2022/10/05 01:56:41;;;;;;;2.90;2.12;;;;;;;16.25;45.36;102393.69;1606081;89;21538;-51
2022/10/05 01:59:17;;;;;;;1.98;1.67;;;;;;;16.24;45.37;102397.19;1565813;91;21542;-51
2022/10/05 02:02:04;;;;;;;2.55;2.00;;;;;;;16.23;45.42;102396.78;1567465;91;21112;-51
2022/10/05 02:04:36;;;;;;;5.10;2.08;;;;;;;16.23;45.42;102398.54;1566748;91;21131;-51
2022/10/05 02:07:06;;;;;;;3.30;2.27;;;;;;;16.20;45.57;102400.77;1567684;91;21103;-51
2022/10/05 02:09:42;;;;;;;2.02;1.87;;;;;;;16.20;45.62;102406.02;1567746;91;21341;-52
2022/10/05 02:12:17;;;;;;;3.77;1.75;;;;;;;16.18;45.69;102403.88;1593862;89;21072;-52
2022/10/05 02:14:48;;;;;;;2.37;1.80;;;;;;;16.19;45.94;102405.63;1603423;89;21058;-51
2022/10/05 02:17:29;;;;;;;2.00;1.80;;;;;;;16.20;45.88;102409.96;1603601;89;21046;-51
2022/10/05 02:20:00;;;;;;;2.35;2.02;;;;;;;16.21;45.87;102411.70;1577111;90;21095;-51
2022/10/05 02:22:45;;;;;;;;;;;;;;;16.24;45.86;102420.83;1579732;90;21053;-52
2022/10/05 02:25:20;;;;;;;1.60;1.50;;;;;;;16.26;45.66;102426.92;1538819;92;20121;-52
2022/10/05 02:27:54;;;;;;;3.75;1.80;;;;;;;16.26;45.59;102428.67;1500251;95;21129;-51
2022/10/05 02:30:20;;;;;;;4.42;1.98;;;;;;;16.24;45.58;102421.27;1531906;92;21154;-52
2022/10/05 02:33:00;;;;;;;2.65;1.82;;;;;;;16.24;45.56;102427.39;1553044;91;21115;-52
2022/10/05 02:35:26;;;;;;;2.35;1.77;;;;;;;16.22;45.75;102425.25;1580003;89;21102;-52
2022/10/05 02:38:17;;;;;;;2.62;1.70;;;;;;;16.21;45.93;102432.72;1586343;90;21603;-51
2022/10/05 02:41:24;;;;;;;1.80;1.70;;;;;;;16.19;45.99;102429.26;1613540;88;21534;-51
2022/10/05 02:44:17;;;;;;;2.50;1.60;;;;;;;16.19;46.20;102433.20;1565083;90;21087;-51
2022/10/05 02:47:19;;;;;;;2.65;2.00;;;;;;;16.17;46.26;102431.05;1574592;90;21575;-51
2022/10/05 02:50:09;;;;;;;4.40;2.05;;;;;;;16.17;46.32;102432.36;1557012;90;21087;-51
2022/10/05 02:52:48;;;;;;;3.67;1.92;;;;;;;16.18;46.31;102434.08;1561804;90;21159;-52
2022/10/05 02:55:22;;;;;;;2.33;2.12;;;;;;;16.20;46.35;102441.48;1546298;92;21580;-53
2022/10/05 02:58:03;;;;;;;4.00;2.20;;;;;;;16.23;46.36;102438.81;1548249;92;21147;-52
2022/10/05 03:00:36;;;;;;;3.35;1.95;;;;;;;16.23;46.46;102442.75;1548404;92;21093;-52
2022/10/05 03:03:38;;;;;;;2.57;1.40;;;;;;;16.25;46.50;102442.27;1548693;92;21040;-51
2022/10/05 03:06:30;;;;;;;2.22;1.80;;;;;;;16.25;46.65;102442.27;1550811;91;21107;-52
2022/10/05 03:09:05;;;;;;;2.08;1.77;;;;;;;16.25;46.77;102449.28;1554201;92;21045;-51
2022/10/05 03:11:53;;;;;;;4.22;1.95;;;;;;;16.24;47.04;102447.09;1552259;92;21109;-51
2022/10/05 03:14:50;;;;;;;2.47;1.85;;;;;;;16.25;47.19;102451.47;1511973;94;21095;-51
2022/10/05 03:17:20;;;;;;;2.50;1.98;;;;;;;16.27;47.35;102451.00;1477741;95;21123;-52
2022/10/05 03:20:12;;;;;;;1.72;1.62;;;;;;;16.31;47.54;102450.48;1504102;95;21072;-51
2022/10/05 03:22:54;;;;;;;2.35;2.15;;;;;;;16.35;47.60;102457.84;1504264;94;21598;-51
2022/10/05 03:25:48;;;;;;;2.67;2.47;;;;;;;16.39;47.61;102462.15;1503570;95;21112;-51
2022/10/05 03:28:36;;;;;;;2.50;1.98;;;;;;;16.43;47.64;102458.56;1525351;93;21127;-51
2022/10/05 03:31:17;;;;;;;2.60;1.98;;;;;;;16.46;47.76;102469.03;1517406;93;21527;-52
2022/10/05 03:34:02;;;;;;;2.58;1.92;;;;;;;16.46;47.76;102467.72;1598117;87;21076;-52
2022/10/05 03:36:47;;;;;;;1.82;1.52;;;;;;;16.47;47.89;102472.06;1602497;88;21095;-51
2022/10/05 03:39:28;;;;;;;2.75;1.95;;;;;;;16.48;47.95;102476.44;1603379;89;21115;-52
2022/10/05 03:42:24;;;;;;;2.42;2.08;;;;;;;16.49;48.10;102478.16;1578535;89;21126;-52
2022/10/05 03:45:20;;;;;;;3.40;1.90;;;;;;;16.49;48.21;102484.73;1577647;90;21060;-51
2022/10/05 03:48:03;;;;;;;5.40;2.27;;;;;;;16.51;48.41;102490.84;1578411;90;21043;-51
2022/10/05 03:50:42;;;;;;;1.92;1.80;;;;;;;16.53;48.56;102493.00;1543903;90;21105;-52
2022/10/05 03:53:21;;;;;;;3.62;2.35;;;;;;;16.57;48.64;102497.34;1548221;91;21590;-52
2022/10/05 03:56:06;;;;;;;2.52;2.30;;;;;;;16.59;48.62;102503.42;1531741;93;21128;-51
2022/10/05 03:58:43;;;;;;;4.83;2.12;;;;;;;16.60;48.61;102499.45;1536457;92;21141;-51
2022/10/05 04:01:15;;;;;;;3.10;2.40;;;;;;;16.63;48.69;102503.79;1533734;92;21076;-51
2022/10/05 04:03:48;;;;;;;2.12;1.90;;;;;;;16.64;48.77;102505.50;1530115;92;21071;-52
2022/10/05 04:06:27;;;;;;;2.58;1.70;;;;;;;16.65;48.89;102507.25;1563022;90;21055;-51
2022/10/05 04:09:23;;;;;;;1.85;1.60;;;;;;;16.68;48.88;102508.49;1559833;90;21055;-51
2022/10/05 04:12:08;;;;;;;6.30;2.02;;;;;;;16.72;48.89;102510.16;1597070;88;21128;-51
2022/10/05 04:14:42;;;;;;;2.20;1.82;;;;;;;16.75;48.79;102514.06;1633280;87;21063;-52
2022/10/05 04:17:13;;;;;;;2.33;1.90;;;;;;;16.79;48.73;102517.05;1601267;89;21041;-52
2022/10/05 04:20:18;;;;;;;4.57;2.37;;;;;;;16.83;48.54;102521.34;1627917;86;20980;-52
2022/10/05 04:22:54;;;;;;;2.35;2.10;;;;;;;16.84;48.60;102519.13;1668768;86;21064;-52
2022/10/05 04:25:35;;;;;;;3.40;2.10;;;;;;;16.86;48.47;102523.46;1637502;87;21053;-52
2022/10/05 04:28:19;;;;;;;4.58;2.25;;;;;;;16.87;48.46;102525.65;1599208;90;21058;-52
2022/10/05 04:30:47;;;;;;;3.47;2.00;;;;;;;16.87;48.45;102528.28;1599428;90;21113;-52
2022/10/05 04:33:14;;;;;;;3.35;2.30;;;;;;;16.86;48.57;102528.72;1599284;90;21138;-52
2022/10/05 04:35:58;;;;;;;2.37;2.02;;;;;;;16.86;48.74;102531.79;1603936;89;21645;-52
2022/10/05 04:38:53;;;;;;;3.05;1.82;;;;;;;16.86;48.84;102535.30;1607207;89;21537;-51
2022/10/05 04:41:44;;;;;;;2.75;2.00;;;;;;;16.89;48.99;102543.58;1617080;88;21086;-52
2022/10/05 04:44:48;;;;;;;2.52;2.10;;;;;;;16.91;49.10;102543.09;1554826;92;21129;-52
2022/10/05 04:47:30;;;;;;;4.78;2.42;;;;;;;16.94;49.19;102543.02;1551089;92;21651;-52
2022/10/05 04:50:23;;;;;;;2.55;2.35;;;;;;;16.97;49.19;102544.29;1490058;96;21125;-52
2022/10/05 04:53:15;;;;;;;3.67;2.30;;;;;;;16.98;49.20;102548.67;1469915;97;21088;-52
2022/10/05 04:56:13;;;;;;;2.00;1.80;;;;;;;17.00;49.18;102553.45;1474859;97;21148;-52
2022/10/05 04:59:22;;;;;;;2.95;1.77;;;;;;;16.99;49.14;102553.02;1464113;97;21131;-52
2022/10/05 05:02:29;;;;;;;3.77;2.30;;;;;;;17.00;49.21;102554.77;1471485;96;21119;-52
2022/10/05 05:05:41;;;;;;;5.67;1.75;;;;;;;16.99;49.31;102562.22;1488282;96;21109;-52
2022/10/05 05:08:26;;;;;;;2.23;1.87;;;;;;;17.00;49.48;102566.13;1492321;94;21647;-53
2022/10/05 05:11:12;;;;;;;2.40;1.92;;;;;;;17.03;49.47;102569.15;1503774;94;21195;-52
2022/10/05 05:14:05;;;;;;;4.80;1.80;;;;;;;17.06;49.62;102569.95;1506067;94;21541;-52
2022/10/05 05:16:45;;;;;;;4.28;2.22;;;;;;;17.09;49.60;102568.59;1473162;97;21171;-51
2022/10/05 05:19:36;;;;;;;2.80;1.87;;;;;;;17.14;49.60;102578.15;1478290;96;21154;-52
2022/10/05 05:22:06;;;;;;;3.70;2.12;;;;;;;17.17;49.67;102582.89;1526695;94;21060;-52
2022/10/05 05:25:03;;;;;;;3.60;1.95;;;;;;;17.20;49.82;102589.42;1525766;94;21165;-52
2022/10/05 05:27:40;;;;;;;4.78;2.10;;;;;;;17.25;50.02;102599.38;1554166;89;21098;-52
2022/10/05 05:30:23;;;;;;;3.05;2.42;;;;;;;17.27;50.16;102599.37;1630613;88;21535;-53
2022/10/05 05:33:22;;;;;;;10.78;2.87;;;;;;;17.30;50.34;102604.12;1607867;87;21106;-53
2022/10/05 05:36:29;;;;;;;3.60;1.95;;;;;;;17.32;50.57;102606.27;1595647;89;21158;-52
2022/10/05 05:39:12;;;;;;;2.55;2.00;;;;;;;17.35;50.77;102600.92;1611157;89;21086;-53
2022/10/05 05:42:02;;;;;;;3.67;2.35;;;;;;;17.41;50.90;102606.09;1623467;88;21490;-53
2022/10/05 05:44:37;;;;;;;3.35;2.20;;;;;;;17.46;51.14;102608.61;1559092;91;21572;-52
2022/10/05 05:47:19;;;;;;;2.72;2.40;;;;;;;17.51;51.27;102602.40;1565860;91;21137;-52
2022/10/05 05:50:29;;;;;;;3.27;2.40;;;;;;;17.60;51.24;102612.72;1609108;88;21580;-52
2022/10/05 05:53:04;;;;;;;3.30;2.25;;;;;;;17.70;51.09;102609.45;1612014;88;21082;-53
2022/10/05 05:55:41;;;;;;;3.62;2.15;;;;;;;17.79;50.70;102614.05;1587525;90;21156;-54
2022/10/05 05:58:22;;;;;;;2.52;2.33;;;;;;;17.87;50.44;102618.70;1564509;92;21152;-52
2022/10/05 06:01:13;;;;;;;3.67;2.27;;;;;;;17.93;50.24;102615.53;1565024;91;21568;-52
2022/10/05 06:03:45;;;;;;;3.77;2.30;;;;;;;17.98;50.09;102621.54;1564553;92;21902;-52
2022/10/05 06:06:17;;;;;;;3.55;2.40;;;;;;;18.02;50.07;102617.93;1501469;95;21603;-52
2022/10/05 06:09:02;;;;;;;4.37;2.40;;;;;;;18.04;49.99;102626.66;1508783;93;21123;-52
2022/10/05 06:11:51;;;;;;;5.83;2.30;;;;;;;18.01;50.24;102622.33;1507799;93;21134;-52
2022/10/05 06:14:52;;;;;;;3.00;2.10;;;;;;;17.98;50.77;102626.81;1533737;92;21160;-53
2022/10/05 06:17:30;;;;;;;5.28;3.05;;;;;;;18.00;50.94;102627.64;1541409;92;21176;-52
2022/10/05 06:19:59;;;;;;;2.60;2.10;;;;;;;18.03;51.13;102628.45;1549144;92;21085;-52
2022/10/05 06:22:43;;;;;;;3.92;2.12;;;;;;;18.05;50.97;102633.68;1575153;90;21124;-52
2022/10/05 06:25:18;;;;;;;4.05;2.10;;;;;;;18.06;50.76;102634.08;1537581;93;21232;-52
2022/10/05 06:28:12;;;;;;;2.37;2.05;;;;;;;18.09;50.83;102637.98;1518884;92;21145;-52
2022/10/05 06:31:15;;;;;;;5.28;2.70;;;;;;;18.11;50.68;102642.31;1526656;92;21113;-52
2022/10/05 06:33:53;;;;;;;3.10;2.20;;;;;;;18.13;50.48;102644.91;1544040;92;21683;-52
2022/10/05 06:36:35;;;;;;;4.75;2.45;;;;;;;18.12;50.36;102645.34;1528468;92;21160;-52
2022/10/05 06:39:29;;;;;;;3.58;2.42;;;;;;;18.10;50.21;102644.96;1528297;93;21135;-52
2022/10/05 06:42:26;;;;;;;5.03;2.55;;;;;;;18.08;50.17;102654.67;1520416;93;21114;-52
2022/10/05 06:45:36;;;;;;;3.35;2.35;;;;;;;18.06;50.21;102648.57;1489529;95;21638;-54
2022/10/05 06:48:31;;;;;;;3.10;2.37;;;;;;;18.02;50.29;102649.54;1452461;98;21189;-51
2022/10/05 06:51:32;;;;;;;3.25;2.30;;;;;;;17.99;50.34;102647.84;1381457;104;21145;-52
2022/10/05 06:54:51;;;;;;;2.83;2.33;;;;;;;17.99;50.40;102641.72;1363705;104;21151;-52
2022/10/05 06:57:48;;;;;;;4.90;2.87;;;;;;;18.01;50.51;102639.45;1364532;105;21646;-51
2022/10/05 07:00:19;;;;;;;3.47;2.37;;;;;;;18.06;50.41;102640.66;1340890;106;21148;-52
2022/10/05 07:03:04;;;;;;;3.25;2.45;;;;;;;18.11;50.27;102638.80;1340200;106;21164;-53
2022/10/05 07:06:04;;;;;;;5.05;2.50;;;;;;;18.15;50.23;102638.70;1360326;105;21111;-52
2022/10/05 07:08:45;;;;;;;3.90;2.40;;;;;;;18.22;50.30;102638.08;1356489;104;21232;-52
2022/10/05 07:11:29;;;;;;;2.77;2.12;;;;;;;18.29;50.21;102638.37;1373702;103;21140;-52
2022/10/05 07:14:25;;;;;;;4.87;2.77;;;;;;;18.33;49.99;102640.91;1371678;103;21135;-53
2022/10/05 07:17:31;;;;;;;3.62;2.20;;;;;;;18.38;50.07;102642.11;1374416;103;21171;-52
2022/10/05 07:20:26;;;;;;;5.58;2.83;;;;;;;18.43;49.82;102646.39;1375216;103;21140;-51
2022/10/05 07:23:24;;;;;;;3.45;2.22;;;;;;;18.48;49.73;102647.61;1388071;101;21173;-52
2022/10/05 07:26:17;;;;;;;2.75;2.20;;;;;;;18.54;49.73;102651.41;1488083;95;21154;-52
2022/10/05 07:29:09;;;;;;;3.52;2.12;;;;;;;18.61;49.63;102654.28;1496849;92;21163;-52
2022/10/05 07:32:12;;;;;;;3.42;2.87;;;;;;;18.66;49.53;102656.38;1601172;86;21056;-52
2022/10/05 07:34:50;;;;;;;2.85;2.35;;;;;;;18.72;49.51;102665.45;1635822;86;21540;-52
2022/10/05 07:37:53;;;;;;;3.67;2.58;;;;;;;18.75;49.38;102665.38;1646459;85;21112;-51
2022/10/05 07:40:48;;;;;;;4.17;2.58;;;;;;;18.78;49.11;102665.29;1648901;85;21089;-52
2022/10/05 07:43:49;;;;;;;4.05;2.40;;;;;;;18.80;49.26;102667.88;1639714;85;21065;-52
2022/10/05 07:46:30;;;;;;;2.75;2.30;;;;;;;18.81;49.41;102669.18;1691688;81;21091;-52
2022/10/05 07:49:04;;;;;;;3.77;2.10;;;;;;;18.83;49.45;102666.05;1733780;81;21017;-52
2022/10/05 07:51:40;;;;;;;3.33;2.42;;;;;;;18.85;49.36;102677.42;1717079;82;21011;-51
2022/10/05 07:54:36;;;;;;;3.00;2.33;;;;;;;18.87;49.35;102673.42;1704749;83;21572;-51
2022/10/05 07:57:27;;;;;;;3.08;2.17;;;;;;;18.89;49.29;102676.44;1748426;80;21502;-52
2022/10/05 08:00:04;;;;;;;5.25;2.40;;;;;;;18.92;49.54;102677.66;1786825;80;21132;-52
2022/10/05 08:03:03;;;;;;;3.33;2.05;;;;;;;18.98;49.56;102674.86;1779679;80;21529;-52
2022/10/05 08:05:36;;;;;;;2.95;2.08;;;;;;;19.04;49.67;102677.81;1775647;80;21021;-52
2022/10/05 08:08:14;;;;;;;2.90;2.30;;;;;;;19.18;49.46;102670.39;1717990;83;21002;-51
2022/10/05 08:10:55;;;;;;;3.85;2.33;;;;;;;19.22;49.11;102675.55;1719182;83;21106;-51
2022/10/05 08:13:30;;;;;;;3.08;2.10;;;;;;;19.28;49.38;102673.19;1718179;83;21013;-51
2022/10/05 08:16:00;;;;;;;2.52;1.82;;;;;;;19.33;49.02;102673.94;1718736;83;21100;-51
2022/10/05 08:18:56;;;;;;;2.75;2.25;;;;;;;19.35;49.12;102676.95;1718803;83;21109;-51
2022/10/05 08:21:37;;;;;;;2.87;1.98;;;;;;;19.39;49.00;102677.28;1739621;82;21069;-51
2022/10/05 08:24:24;;;;;;;2.77;1.92;;;;;;;19.43;49.08;102674.97;1715359;83;21088;-51
2022/10/05 08:26:58;;;;;;;3.08;2.25;;;;;;;19.51;48.75;102680.50;1723117;83;21577;-51
2022/10/05 08:29:35;;;;;;;3.62;2.42;;;;;;;19.57;48.51;102679.00;1709190;83;20998;-52
2022/10/05 08:32:32;;;;;;;4.75;2.45;;;;;;;19.60;48.21;102685.05;1721509;83;21609;-51
2022/10/05 08:35:25;;;;;;;2.30;1.77;;;;;;;19.65;47.98;102687.57;1720751;83;21085;-51
2022/10/05 08:37:51;;;;;;;2.95;2.15;;;;;;;19.69;48.27;102682.61;1713451;83;21558;-52
2022/10/05 08:40:44;;;;;;;3.22;2.30;;;;;;;19.72;48.40;102689.98;1710429;83;21065;-52
2022/10/05 08:43:55;;;;;;;3.83;2.30;;;;;;;19.75;48.52;102684.63;1716841;83;21046;-52
2022/10/05 08:46:36;;;;;;;2.70;1.95;;;;;;;19.80;48.75;102689.33;1700225;83;21074;-50
2022/10/05 08:49:45;;;;;;;3.22;2.22;;;;;;;19.87;48.44;102684.70;1709042;83;21030;-51
2022/10/05 08:52:30;;;;;;;3.95;2.40;;;;;;;19.87;48.12;102686.89;1706590;83;21527;-50
2022/10/05 08:55:22;;;;;;;4.20;2.52;;;;;;;19.92;48.06;102694.25;1666047;84;21057;-51
2022/10/05 08:58:02;;;;;;;5.53;2.65;;;;;;;19.86;48.17;102693.11;1695788;84;21053;-52
2022/10/05 09:00:56;;;;;;;3.62;2.52;;;;;;;19.90;48.21;102691.23;1692046;84;21005;-53
2022/10/05 09:03:56;;;;;;;4.05;2.58;;;;;;;19.92;48.29;102692.05;1633150;88;21132;-51
2022/10/05 09:06:54;;;;;;;4.58;2.40;;;;;;;19.95;48.25;102695.45;1668250;85;21069;-51
2022/10/05 09:09:52;;;;;;;4.05;2.27;;;;;;;19.98;47.96;102691.86;1669707;84;21587;-51
2022/10/05 09:13:01;;;;;;;3.27;2.30;;;;;;;19.92;48.17;102702.62;1673992;84;21056;-51
2022/10/05 09:16:08;;;;;;;3.95;2.40;;;;;;;19.99;48.13;102698.90;1638098;84;21056;-51
2022/10/05 09:19:15;;;;;;;2.95;2.20;;;;;;;20.07;47.85;102697.72;1608896;88;21589;-51
2022/10/05 09:22:01;;;;;;;4.25;2.50;;;;;;;20.14;48.10;102693.12;1618989;88;21492;-51
2022/10/05 09:24:34;;;;;;;2.67;2.02;;;;;;;20.22;48.12;102691.14;1618785;88;21104;-51
2022/10/05 09:27:10;;;;;;;5.35;2.60;;;;;;;20.30;48.01;102697.05;1568677;91;21079;-51
2022/10/05 09:30:27;;;;;;;3.40;2.52;;;;;;;20.33;48.06;102694.32;1474015;97;21151;-51
2022/10/05 09:33:09;;;;;;;3.87;2.85;;;;;;;20.38;48.04;102692.38;1481252;96;21105;-51
2022/10/05 09:36:05;;;;;;;3.00;2.22;;;;;;;20.47;47.68;102689.91;1476589;96;21125;-50
2022/10/05 09:39:11;;;;;;;3.77;2.02;;;;;;;20.54;47.45;102687.48;1431054;99;21120;-51
2022/10/05 09:42:15;;;;;;;4.92;2.08;;;;;;;20.61;47.19;102680.61;1445475;97;21144;-51
2022/10/05 09:44:49;;;;;;;2.22;1.90;;;;;;;20.69;46.95;102681.22;1472717;97;21198;-53
2022/10/05 09:47:36;;;;;;;2.30;2.10;;;;;;;20.79;46.68;102681.80;1446646;98;21766;-51
2022/10/05 09:50:44;;;;;;;2.20;2.00;;;;;;;20.87;46.39;102674.45;1435998;100;21225;-51
2022/10/05 09:53:48;;;;;;;3.17;2.42;;;;;;;20.94;45.97;102675.51;1436270;100;21109;-51
2022/10/05 09:56:38;;;;;;;2.58;2.00;;;;;;;21.03;45.90;102663.77;1506960;94;21154;-51
2022/10/05 09:59:41;;;;;;;3.55;2.40;;;;;;;21.12;45.63;102673.18;1521579;93;21103;-51
2022/10/05 10:02:35;;;;;;;5.67;2.05;;;;;;;21.17;45.52;102661.95;1535907;93;21104;-51
2022/10/05 10:05:21;;;;;;;2.92;1.82;;;;;;;21.24;45.34;102666.12;1533455;92;21641;-51
2022/10/05 10:08:15;;;;;;;2.40;1.75;;;;;;;21.29;45.28;102661.54;1645043;84;21056;-51
2022/10/05 10:11:08;;;;;;;3.40;1.90;;;;;;;21.34;45.20;102660.89;1664510;84;21556;-51
2022/10/05 10:14:09;;;;;;;1.72;1.60;;;;;;;21.37;44.78;102654.18;1664299;84;21044;-51
2022/10/05 10:17:05;;;;;;;1.75;1.57;;;;;;;21.40;44.06;102658.02;1613514;87;21148;-51
2022/10/05 10:20:09;;;;;;;1.90;1.42;;;;;;;21.39;43.83;102656.31;1616425;87;21140;-51
2022/10/05 10:22:53;;;;;;;1.75;1.57;;;;;;;21.40;42.97;102660.67;1616631;87;21104;-51
2022/10/05 10:26:01;;;;;;;2.87;1.77;;;;;;;21.37;42.03;102654.18;1618411;86;21124;-51
2022/10/05 10:28:59;;;;;;;2.47;1.20;;;;;;;21.37;42.23;102661.64;1682774;83;21069;-51
2022/10/05 10:31:37;;;;;;;3.35;1.40;;;;;;;21.39;41.80;102656.31;1698410;83;21068;-51
2022/10/05 10:34:40;;;;;;;1.95;1.70;;;;;;;21.37;41.49;102658.16;1689383;83;21135;-51
2022/10/05 10:37:28;;;;;;;1.92;1.60;;;;;;;21.33;41.26;102659.19;1690613;83;21124;-51
2022/10/05 10:40:10;;;;;;;2.27;1.60;;;;;;;21.31;41.38;102661.02;1712769;82;21042;-51
2022/10/05 10:42:45;;;;;;;2.60;1.90;;;;;;;21.33;41.27;102648.59;1717130;81;21077;-51
2022/10/05 10:45:28;;;;;;;2.47;1.80;;;;;;;21.38;41.24;102650.59;1694052;82;21046;-51
2022/10/05 10:48:13;;;;;;;2.27;1.90;;;;;;;21.39;40.69;102649.20;1656908;85;21111;-51
2022/10/05 10:50:57;;;;;;;2.02;1.60;;;;;;;21.41;40.70;102646.03;1670927;84;21025;-51
2022/10/05 10:53:50;;;;;;;2.15;1.47;;;;;;;21.44;41.22;102649.04;1651627;86;21096;-51
2022/10/05 10:56:43;;;;;;;1.62;1.50;;;;;;;21.47;40.98;102643.64;1645266;86;21021;-51
2022/10/05 10:59:40;;;;;;;2.47;1.60;;;;;;;21.50;40.60;102643.52;1645144;86;21085;-51
2022/10/05 11:02:21;;;;;;;1.70;1.35;;;;;;;21.49;40.55;102642.67;1646582;86;21103;-51
2022/10/05 11:05:27;;;;;;;1.75;1.50;;;;;;;21.52;40.37;102641.67;1644322;87;21017;-51
2022/10/05 11:08:30;;;;;;;1.87;1.45;;;;;;;21.57;40.21;102642.38;1646899;86;21028;-51
2022/10/05 11:11:35;;;;;;;2.75;1.90;;;;;;;21.61;39.95;102638.69;1656689;86;21057;-51
2022/10/05 11:14:07;;;;;;;2.05;1.30;;;;;;;21.62;40.04;102637.30;1626747;86;21096;-51
2022/10/05 11:17:14;;;;;;;1.50;1.40;;;;;;;21.62;40.76;102638.62;1583081;89;21065;-51
2022/10/05 11:20:10;;;;;;;1.75;1.45;;;;;;;21.62;40.47;102637.75;1576817;89;21088;-51
2022/10/05 11:23:06;;;;;;;1.50;1.40;;;;;;;21.65;40.01;102638.97;1576732;90;21036;-51
2022/10/05 11:25:50;;;;;;;1.42;1.22;;;;;;;21.71;39.79;102636.09;1576852;89;21099;-51
2022/10/05 11:28:48;;;;;;;1.57;1.10;;;;;;;21.76;38.69;102630.16;1576759;90;21087;-51
2022/10/05 11:31:46;;;;;;;1.50;1.40;;;;;;;21.73;38.68;102623.19;1573735;88;21122;-51
2022/10/05 11:34:36;;;;;;;1.52;1.10;;;;;;;21.70;39.03;102630.41;1576058;90;21083;-51
2022/10/05 11:37:19;;;;;;;1.40;0.98;;;;;;;21.65;38.73;102631.90;1589045;86;21171;-50
2022/10/05 11:40:13;;;;;;;1.75;1.30;;;;;;;21.60;38.58;102633.84;1687817;83;21525;-51
2022/10/05 11:43:09;;;;;;;4.42;1.30;;;;;;;21.55;38.86;102625.68;1729242;81;21029;-51
2022/10/05 11:45:55;;;;;;;1.02;0.93;;;;;;;21.54;38.90;102615.98;1725495;81;21010;-51
2022/10/05 11:48:46;;;;;;;2.00;0.93;;;;;;;21.55;38.54;102621.25;1729418;81;21103;-51
2022/10/05 11:51:30;;;;;;;2.67;1.27;;;;;;;21.58;38.55;102628.20;1729155;81;21031;-51
2022/10/05 11:54:30;;;;;;;1.12;1.00;;;;;;;21.60;37.87;102629.87;1749750;80;21582;-51
2022/10/05 11:57:07;;;;;;;1.77;1.10;;;;;;;21.60;37.77;102630.32;1753888;82;21064;-51
2022/10/05 11:59:42;;;;;;;0.80;0.80;;;;;;;21.55;37.66;102623.03;1753539;82;21044;-51
2022/10/05 12:02:51;;;;;;;0.88;0.88;;;;;;;21.54;37.65;102626.58;1713991;82;21102;-51
2022/10/05 12:05:52;;;;;;;2.10;1.00;;;;;;;21.54;37.69;102633.20;1714537;82;21006;-51
2022/10/05 12:08:43;;;;;;;2.40;1.05;;;;;;;21.51;38.10;102632.02;1714908;82;21030;-51
2022/10/05 12:11:57;;;;;;;1.55;1.30;;;;;;;21.49;38.42;102641.80;1710022;82;21143;-51
2022/10/05 12:14:46;;;;;;;1.20;1.10;;;;;;;21.49;39.06;102639.16;1672818;85;21128;-51
2022/10/05 12:17:31;;;;;;;1.60;1.10;;;;;;;21.47;39.01;102641.00;1685596;85;21050;-51
2022/10/05 12:20:01;;;;;;;1.80;1.20;;;;;;;21.44;38.72;102643.74;1675835;85;21011;-51
2022/10/05 12:23:00;;;;;;;2.30;1.25;;;;;;;21.39;38.52;102639.94;1676448;85;21500;-51
2022/10/05 12:25:54;;;;;;;1.95;1.02;;;;;;;21.37;38.71;102639.61;1612957;89;21132;-51
2022/10/05 12:28:26;;;;;;;2.05;1.07;;;;;;;21.37;38.24;102639.61;1597370;90;21512;-50
2022/10/05 12:31:13;;;;;;;2.72;1.10;;;;;;;21.39;37.42;102633.80;1544326;93;21121;-51
2022/10/05 12:33:45;;;;;;;1.10;0.98;;;;;;;21.39;36.98;102633.31;1554140;92;21089;-50
2022/10/05 12:36:20;;;;;;;1.35;0.88;;;;;;;21.39;37.47;102633.80;1556414;92;21093;-51
2022/10/05 12:39:32;;;;;;;1.65;1.00;;;;;;;21.41;37.66;102626.17;1520988;93;21195;-51
2022/10/05 12:42:25;;;;;;;2.12;0.90;;;;;;;21.45;38.18;102626.95;1524751;93;21140;-51
2022/10/05 12:45:33;;;;;;;3.62;1.10;;;;;;;21.51;38.35;102621.42;1496330;95;21057;-51
2022/10/05 12:48:09;;;;;;;1.77;1.37;;;;;;;21.60;38.16;102621.05;1500383;95;21671;-51
2022/10/05 12:50:41;;;;;;;1.82;0.98;;;;;;;21.67;37.92;102619.45;1493382;94;21064;-51
2022/10/05 12:53:47;;;;;;;1.98;1.00;;;;;;;21.71;37.72;102620.19;1510965;94;21103;-51
2022/10/05 12:56:27;;;;;;;1.80;1.30;;;;;;;21.74;37.81;102616.11;1508580;94;21072;-51
2022/10/05 12:59:44;;;;;;;4.08;1.65;;;;;;;21.78;37.75;102613.26;1507119;94;21123;-51